createdAt,value
2023-04-30T00:01:41.936Z,102561.69
2023-04-30T00:04:27.814Z,102557.50
2023-04-30T00:07:14.302Z,102569.97
2023-04-30T00:10:00.171Z,102569.13
2023-04-30T00:12:45.943Z,102578.03
2023-04-30T00:15:31.805Z,102583.53
2023-04-30T00:18:18.863Z,102582.78
2023-04-30T00:21:04.955Z,102587.50
2023-04-30T00:23:50.584Z,102588.50
2023-04-30T00:26:36.410Z,102588.75
2023-04-30T00:29:22.209Z,102597.72
2023-04-30T00:32:08.020Z,102591.03
2023-04-30T00:34:55.342Z,102593.03
2023-04-30T00:37:41.832Z,102598.41
2023-04-30T00:40:27.858Z,102608.94
2023-04-30T00:43:13.870Z,102616.13
2023-04-30T00:45:59.753Z,102623.38
2023-04-30T00:48:45.984Z,102633.19
2023-04-30T00:51:33.790Z,102642.97
2023-04-30T00:54:19.558Z,102643.06
2023-04-30T00:57:05.534Z,102645.97
2023-04-30T00:59:51.509Z,102649.66
2023-04-30T01:02:37.860Z,102649.78
2023-04-30T01:05:24.045Z,102655.13
2023-04-30T01:08:11.157Z,102657.84
2023-04-30T01:11:02.934Z,102668.44
2023-04-30T01:13:51.573Z,102679.09
2023-04-30T01:16:41.345Z,102687.00
2023-04-30T01:19:30.558Z,102696.75
2023-04-30T01:22:23.053Z,102699.56
2023-04-30T01:25:15.553Z,102705.88
2023-04-30T01:28:09.270Z,102715.66
2023-04-30T01:30:56.465Z,102721.22
2023-04-30T01:33:42.826Z,102725.66
2023-04-30T01:36:36.104Z,102721.16
2023-04-30T01:39:34.713Z,102720.50
2023-04-30T01:42:21.690Z,102721.56
2023-04-30T01:45:22.134Z,102724.41
2023-04-30T01:48:09.356Z,102727.09
2023-04-30T01:50:57.190Z,102735.06
2023-04-30T01:53:44.032Z,102735.31
2023-04-30T01:56:32.282Z,102740.69
2023-04-30T01:59:18.352Z,102742.41
2023-04-30T02:02:06.257Z,102739.78
2023-04-30T02:04:52.294Z,102748.56
2023-04-30T02:07:39.058Z,102753.25
2023-04-30T02:10:26.392Z,102752.59
2023-04-30T02:13:12.567Z,102749.25
2023-04-30T02:15:58.459Z,102745.94
2023-04-30T02:18:46.454Z,102748.69
2023-04-30T02:21:32.441Z,102748.69
2023-04-30T02:24:18.327Z,102749.72
2023-04-30T02:27:04.352Z,102755.78
2023-04-30T02:29:50.335Z,102761.94
2023-04-30T02:32:37.154Z,102768.19
2023-04-30T02:35:24.779Z,102770.09
2023-04-30T02:38:10.514Z,102779.88
2023-04-30T02:40:56.465Z,102788.69
2023-04-30T02:43:42.216Z,102780.91
2023-04-30T02:46:27.937Z,102782.84
2023-04-30T02:49:13.900Z,102784.69
2023-04-30T02:52:00.882Z,102783.97
2023-04-30T02:54:47.343Z,102789.16
2023-04-30T02:57:33.199Z,102794.53
2023-04-30T03:00:19.042Z,102801.72
2023-04-30T03:03:06.035Z,102799.16
2023-04-30T03:05:52.311Z,102804.53
2023-04-30T03:08:39.437Z,102799.38
2023-04-30T03:11:25.301Z,102802.88
2023-04-30T03:14:11.265Z,102804.72
2023-04-30T03:16:57.573Z,102808.34
2023-04-30T03:19:43.510Z,102802.25
2023-04-30T03:22:29.668Z,102811.78
2023-04-30T03:25:16.799Z,102816.28
2023-04-30T03:28:02.827Z,102819.84
2023-04-30T03:30:48.551Z,102818.06
2023-04-30T03:33:34.424Z,102826.06
2023-04-30T03:36:21.024Z,102819.19
2023-04-30T03:39:07.684Z,102818.41
2023-04-30T03:41:54.714Z,102826.41
2023-04-30T03:44:41.204Z,102830.00
2023-04-30T03:47:27.655Z,102838.03
2023-04-30T03:50:14.083Z,102846.81
2023-04-30T03:53:00.715Z,102845.97
2023-04-30T03:55:46.452Z,102849.50
2023-04-30T03:58:34.037Z,102842.53
2023-04-30T04:01:19.788Z,102846.06
2023-04-30T04:04:05.804Z,102849.59
2023-04-30T04:06:52.666Z,102853.94
2023-04-30T04:09:38.632Z,102852.22
2023-04-30T04:12:24.566Z,102859.19
2023-04-30T04:15:12.135Z,102865.34
2023-04-30T04:17:58.328Z,102865.38
2023-04-30T04:20:44.466Z,102868.91
2023-04-30T04:23:30.753Z,102877.66
2023-04-30T04:26:19.570Z,102876.84
2023-04-30T04:29:05.496Z,102882.13
2023-04-30T04:31:52.773Z,102890.78
2023-04-30T04:34:39.184Z,102902.13
2023-04-30T04:37:25.228Z,102902.88
2023-04-30T04:40:12.321Z,102901.06
2023-04-30T04:42:58.446Z,102902.81
2023-04-30T04:45:44.402Z,102909.75
2023-04-30T04:48:31.730Z,102917.63
2023-04-30T04:51:17.840Z,102926.19
2023-04-30T04:54:03.636Z,102927.88
2023-04-30T04:56:50.049Z,102931.34
2023-04-30T04:59:35.865Z,102942.69
2023-04-30T05:02:23.352Z,102943.56
2023-04-30T05:05:11.892Z,102950.41
2023-04-30T05:07:57.698Z,102960.81
2023-04-30T05:10:43.500Z,102958.97
2023-04-30T05:13:30.009Z,102967.53
2023-04-30T05:16:16.334Z,102968.31
2023-04-30T05:19:02.663Z,102986.47
2023-04-30T05:21:49.922Z,102990.66
2023-04-30T05:24:35.540Z,102992.25
2023-04-30T05:27:21.592Z,102995.53
2023-04-30T05:30:10.052Z,103008.44
2023-04-30T05:32:56.732Z,103005.66
2023-04-30T05:35:42.708Z,103013.22
2023-04-30T05:38:30.041Z,103029.56
2023-04-30T05:41:16.051Z,103037.97
2023-04-30T05:44:04.817Z,103046.50
2023-04-30T05:46:50.849Z,103054.84
2023-04-30T05:49:36.555Z,103064.75
2023-04-30T05:52:22.371Z,103073.94
2023-04-30T05:55:11.518Z,103082.34
2023-04-30T05:57:57.560Z,103089.03
2023-04-30T06:00:43.284Z,103097.06
2023-04-30T06:03:29.037Z,103098.63
2023-04-30T06:06:14.855Z,103105.91
2023-04-30T06:09:00.588Z,103113.41
2023-04-30T06:11:50.297Z,103119.81
2023-04-30T06:14:36.188Z,103113.09
2023-04-30T06:17:21.883Z,103116.81
2023-04-30T06:20:08.461Z,103120.81
2023-04-30T06:22:54.577Z,103112.38
2023-04-30T06:25:40.442Z,103104.91
2023-04-30T06:28:27.754Z,103097.28
2023-04-30T06:31:13.607Z,103085.34
2023-04-30T06:33:59.971Z,103064.69
2023-04-30T06:36:45.724Z,103043.75
2023-04-30T06:39:31.513Z,103013.56
2023-04-30T06:42:17.387Z,102982.09
2023-04-30T06:45:06.539Z,102931.88
2023-04-30T06:47:53.389Z,102886.66
2023-04-30T06:50:44.760Z,102839.34
2023-04-30T06:53:30.766Z,102782.88
2023-04-30T06:56:16.686Z,102733.53
2023-04-30T06:59:02.732Z,102695.91
2023-04-30T07:01:50.108Z,102650.97
2023-04-30T07:04:36.194Z,102600.50
2023-04-30T07:07:23.105Z,102558.47
2023-04-30T07:10:09.455Z,102523.19
2023-04-30T07:12:55.640Z,102508.56
2023-04-30T07:15:42.169Z,102479.88
2023-04-30T07:18:29.547Z,102459.47
2023-04-30T07:21:15.335Z,102450.31
2023-04-30T07:24:01.067Z,102435.72
2023-04-30T07:26:46.867Z,102421.78
2023-04-30T07:29:32.725Z,102406.78
2023-04-30T07:32:18.594Z,102391.94
2023-04-30T07:35:06.172Z,102375.03
2023-04-30T07:37:52.191Z,102360.41
2023-04-30T07:40:38.231Z,102345.97
2023-04-30T07:43:24.026Z,102321.34
2023-04-30T07:46:09.762Z,102302.00
2023-04-30T07:48:55.475Z,102301.91
2023-04-30T07:51:43.193Z,102287.13
2023-04-30T07:54:29.413Z,102270.78
2023-04-30T07:57:15.754Z,102234.84
2023-04-30T08:00:01.494Z,102221.47
2023-04-30T08:02:48.672Z,102218.91
2023-04-30T08:05:35.117Z,102205.56
2023-04-30T08:08:22.580Z,102193.72
2023-04-30T08:11:08.324Z,102182.97
2023-04-30T08:13:54.105Z,102221.69
2023-04-30T08:16:39.988Z,102226.75
2023-04-30T08:19:26.305Z,102218.91
2023-04-30T08:22:12.037Z,102186.47
2023-04-30T08:25:01.699Z,102207.41
2023-04-30T08:27:47.603Z,102195.56
2023-04-30T08:30:33.443Z,102182.88
2023-04-30T08:33:19.246Z,102187.06
2023-04-30T08:36:05.325Z,102191.16
2023-04-30T08:38:51.251Z,102189.47
2023-04-30T08:41:38.355Z,102197.31
2023-04-30T08:44:24.308Z,102197.66
2023-04-30T08:47:10.127Z,102173.84
2023-04-30T08:49:56.137Z,102179.53
2023-04-30T08:52:42.636Z,102174.66
2023-04-30T08:55:28.351Z,102186.28
2023-04-30T08:58:15.728Z,102174.22
2023-04-30T09:01:02.185Z,102171.38
2023-04-30T09:03:48.411Z,102175.38
2023-04-30T09:06:34.381Z,102177.41
2023-04-30T09:09:20.288Z,102177.75
2023-04-30T09:12:14.671Z,102171.97
2023-04-30T09:15:04.301Z,102115.31
2023-04-30T09:17:50.398Z,102106.06
2023-04-30T09:20:36.397Z,102061.63
2023-04-30T09:23:22.531Z,102028.50
2023-04-30T09:26:08.632Z,102009.75
2023-04-30T09:28:58.425Z,102006.28
2023-04-30T09:31:46.979Z,102007.72
2023-04-30T09:34:34.864Z,101996.81
2023-04-30T09:37:21.115Z,101991.09
2023-04-30T09:40:07.490Z,101998.66
2023-04-30T09:42:59.204Z,101996.50
2023-04-30T09:45:47.504Z,101993.75
2023-04-30T09:48:34.852Z,101993.34
2023-04-30T09:51:21.128Z,101997.03
2023-04-30T09:54:06.862Z,101986.38
2023-04-30T09:56:52.980Z,101988.44
2023-04-30T09:59:39.684Z,101989.09
2023-04-30T10:02:25.865Z,101983.06
2023-04-30T10:05:14.008Z,101978.47
2023-04-30T10:08:00.098Z,101978.28
2023-04-30T10:10:46.194Z,101972.63
2023-04-30T10:13:32.649Z,101970.31
2023-04-30T10:16:21.573Z,101975.19
2023-04-30T10:19:08.362Z,101979.25
2023-04-30T10:21:55.888Z,101978.78
2023-04-30T10:24:42.836Z,101969.81
2023-04-30T10:27:28.927Z,101975.56
2023-04-30T10:30:14.876Z,101983.50
2023-04-30T10:33:03.018Z,101978.19
2023-04-30T10:35:50.448Z,101965.72
2023-04-30T10:38:37.840Z,101965.84
2023-04-30T10:41:23.793Z,101960.78
2023-04-30T10:44:09.858Z,101953.91
2023-04-30T10:46:59.711Z,101944.56
2023-04-30T10:49:48.141Z,101947.31
2023-04-30T10:52:34.357Z,101950.81
2023-04-30T10:55:21.534Z,101946.31
2023-04-30T10:58:11.855Z,101946.13
2023-04-30T11:01:01.968Z,101942.91
2023-04-30T11:04:03.164Z,101938.00
2023-04-30T11:06:56.501Z,101934.88
2023-04-30T11:09:43.197Z,101936.94
2023-04-30T11:12:30.393Z,101926.88
2023-04-30T11:15:17.811Z,101926.78
2023-04-30T11:18:03.912Z,101922.41
2023-04-30T11:20:50.859Z,101915.66
2023-04-30T11:23:40.445Z,101922.00
2023-04-30T11:26:27.942Z,101915.72
2023-04-30T11:29:15.192Z,101915.25
2023-04-30T11:32:01.529Z,101915.00
2023-04-30T11:34:47.797Z,101917.16
2023-04-30T11:37:36.481Z,101920.31
2023-04-30T11:40:22.200Z,101917.59
2023-04-30T11:43:08.270Z,101910.66
2023-04-30T11:46:09.335Z,101913.56
2023-04-30T11:48:56.793Z,101903.63
2023-04-30T11:51:42.778Z,101906.94
2023-04-30T11:54:30.246Z,101900.22
2023-04-30T11:57:16.672Z,101907.47
2023-04-30T12:00:09.902Z,101905.97
2023-04-30T12:02:56.602Z,101896.63
2023-04-30T12:05:44.565Z,101897.47
2023-04-30T12:08:30.609Z,101894.75
2023-04-30T12:11:25.126Z,101894.66
2023-04-30T12:14:11.389Z,101885.78
2023-04-30T12:16:58.823Z,101881.28
2023-04-30T12:19:44.768Z,101884.53
2023-04-30T12:22:31.877Z,101881.03
2023-04-30T12:25:18.912Z,101883.16
2023-04-30T12:28:05.293Z,101878.31
2023-04-30T12:30:51.381Z,101877.75
2023-04-30T12:33:37.359Z,101877.28
2023-04-30T12:36:23.329Z,101868.00
2023-04-30T12:39:11.381Z,101867.72
2023-04-30T12:42:00.738Z,101861.97
2023-04-30T12:44:46.849Z,101861.34
2023-04-30T12:47:33.319Z,101873.88
2023-04-30T12:50:19.282Z,101870.97
2023-04-30T12:53:05.116Z,101859.38
2023-04-30T12:56:12.015Z,101854.53
2023-04-30T12:58:57.748Z,101855.78
2023-04-30T13:01:45.740Z,101856.41
2023-04-30T13:04:31.956Z,101856.84
2023-04-30T13:07:18.002Z,101845.72
2023-04-30T13:10:03.955Z,101844.31
2023-04-30T13:12:51.150Z,101846.81
2023-04-30T13:15:37.206Z,101840.59
2023-04-30T13:18:23.191Z,101831.00
2023-04-30T13:21:09.221Z,101827.63
2023-04-30T13:23:56.653Z,101814.72
2023-04-30T13:26:43.476Z,101823.25
2023-04-30T13:29:30.609Z,101811.75
2023-04-30T13:32:16.893Z,101816.25
2023-04-30T13:35:03.001Z,101816.25
2023-04-30T13:37:52.229Z,101813.78
2023-04-30T13:40:38.045Z,101810.16
2023-04-30T13:43:24.014Z,101801.25
2023-04-30T13:46:11.169Z,101805.47
2023-04-30T13:48:56.850Z,101797.81
2023-04-30T13:51:42.637Z,101796.50
2023-04-30T13:54:28.448Z,101791.63
2023-04-30T13:57:14.395Z,101790.34
2023-04-30T14:00:00.631Z,101792.16
2023-04-30T14:02:47.944Z,101781.28
2023-04-30T14:05:33.972Z,101782.22
2023-04-30T14:08:21.887Z,101787.09
2023-04-30T14:11:09.532Z,101782.69
2023-04-30T14:13:55.445Z,101784.84
2023-04-30T14:16:42.421Z,101774.78
2023-04-30T14:19:30.271Z,101769.63
2023-04-30T14:22:16.630Z,101762.78
2023-04-30T14:25:02.561Z,101765.13
2023-04-30T14:27:49.176Z,101764.53
2023-04-30T14:30:34.820Z,101750.00
2023-04-30T14:33:20.729Z,101749.81
2023-04-30T14:36:08.474Z,101748.19
2023-04-30T14:38:54.469Z,101744.84
2023-04-30T14:41:40.370Z,101740.44
2023-04-30T14:44:26.488Z,101741.41
2023-04-30T14:47:13.375Z,101740.44
2023-04-30T14:50:02.108Z,101741.03
2023-04-30T14:52:49.445Z,101734.44
2023-04-30T14:55:35.239Z,101725.28
2023-04-30T14:58:21.072Z,101721.56
2023-04-30T15:01:07.155Z,101726.41
2023-04-30T15:03:53.436Z,101731.91
2023-04-30T15:06:40.109Z,101716.88
2023-04-30T15:09:27.660Z,101716.19
2023-04-30T15:12:13.748Z,101718.41
2023-04-30T15:15:00.394Z,101716.19
2023-04-30T15:17:46.483Z,101708.75
2023-04-30T15:20:32.556Z,101718.41
2023-04-30T15:23:18.461Z,101711.38
2023-04-30T15:26:05.496Z,101707.97
2023-04-30T15:28:51.490Z,101712.19
2023-04-30T15:31:37.370Z,101713.34
2023-04-30T15:34:23.679Z,101711.69
2023-04-30T15:37:09.821Z,101713.34
2023-04-30T15:39:56.128Z,101706.84
2023-04-30T15:42:43.649Z,101707.22
2023-04-30T15:45:29.496Z,101703.16
2023-04-30T15:48:15.760Z,101706.53
2023-04-30T15:51:01.569Z,101702.00
2023-04-30T15:53:47.341Z,101696.31
2023-04-30T15:56:32.976Z,101697.59
2023-04-30T15:59:20.136Z,101699.44
2023-04-30T16:02:06.111Z,101690.19
2023-04-30T16:04:52.205Z,101686.00
2023-04-30T16:07:37.995Z,101692.13
2023-04-30T16:10:23.825Z,101688.75
2023-04-30T16:13:09.665Z,101688.63
2023-04-30T16:15:56.931Z,101682.66
2023-04-30T16:18:42.684Z,101675.94
2023-04-30T16:21:29.119Z,101679.50
2023-04-30T16:24:16.222Z,101680.72
2023-04-30T16:27:01.992Z,101676.31
2023-04-30T16:29:47.785Z,101679.97
2023-04-30T16:32:34.930Z,101681.56
2023-04-30T16:35:20.751Z,101683.97
2023-04-30T16:38:06.580Z,101671.59
2023-04-30T16:40:52.348Z,101671.91
2023-04-30T16:43:38.453Z,101661.06
2023-04-30T16:46:24.298Z,101667.31
2023-04-30T16:49:11.810Z,101661.28
2023-04-30T16:51:57.677Z,101657.84
2023-04-30T16:54:44.157Z,101658.84
2023-04-30T16:57:30.509Z,101652.41
2023-04-30T17:00:17.588Z,101651.34
2023-04-30T17:03:04.613Z,101643.00
2023-04-30T17:05:52.535Z,101639.81
2023-04-30T17:08:40.272Z,101639.56
2023-04-30T17:11:26.821Z,101648.84
2023-04-30T17:14:12.595Z,101640.16
2023-04-30T17:16:58.638Z,101642.59
2023-04-30T17:19:44.524Z,101639.78
2023-04-30T17:22:31.604Z,101644.03
2023-04-30T17:25:17.482Z,101646.41
2023-04-30T17:28:03.513Z,101644.16
2023-04-30T17:30:49.856Z,101652.91
2023-04-30T17:33:35.882Z,101664.91
2023-04-30T17:36:21.683Z,101674.72
2023-04-30T17:39:08.782Z,101681.91
2023-04-30T17:41:54.525Z,101672.91
2023-04-30T17:44:40.729Z,101667.28
2023-04-30T17:47:26.558Z,101671.09
2023-04-30T17:50:12.313Z,101666.06
2023-04-30T17:52:58.018Z,101686.31
2023-04-30T17:55:45.477Z,101684.22
2023-04-30T17:58:31.404Z,101686.34
2023-04-30T18:01:17.593Z,101696.03
2023-04-30T18:04:03.792Z,101716.25
2023-04-30T18:06:49.914Z,101759.81
2023-04-30T18:09:36.092Z,101782.44
2023-04-30T18:12:23.528Z,101798.97
2023-04-30T18:15:09.564Z,101802.34
2023-04-30T18:17:55.507Z,101809.34
2023-04-30T18:20:41.725Z,101818.75
2023-04-30T18:23:27.499Z,101829.84
2023-04-30T18:26:13.418Z,101871.47
2023-04-30T18:29:00.792Z,101899.47
2023-04-30T18:31:46.521Z,101909.13
2023-04-30T18:34:32.487Z,101958.00
2023-04-30T18:37:18.658Z,101977.59
2023-04-30T18:40:05.108Z,101983.69
2023-04-30T18:42:51.507Z,101984.47
2023-04-30T18:45:39.042Z,101992.38
2023-04-30T18:48:25.260Z,101990.81
2023-04-30T18:51:10.989Z,102005.03
2023-04-30T18:53:57.672Z,102016.19
2023-04-30T18:56:44.295Z,102019.84
2023-04-30T18:59:30.372Z,102016.00
2023-04-30T19:02:17.554Z,102009.59
2023-04-30T19:05:03.797Z,102026.06
2023-04-30T19:07:49.766Z,102027.72
2023-04-30T19:10:36.028Z,102036.69
2023-04-30T19:13:22.085Z,102015.53
2023-04-30T19:16:08.159Z,102034.50
2023-04-30T19:18:55.550Z,102041.75
2023-04-30T19:21:41.254Z,102046.06
2023-04-30T19:24:27.317Z,102065.59
2023-04-30T19:27:13.222Z,102062.88
2023-04-30T19:29:59.255Z,102066.25
2023-04-30T19:32:46.409Z,102071.25
2023-04-30T19:35:34.957Z,102082.47
2023-04-30T19:38:20.991Z,102080.59
2023-04-30T19:41:07.182Z,102078.84
2023-04-30T19:43:53.516Z,102085.53
2023-04-30T19:46:42.180Z,102088.88
2023-04-30T19:49:28.469Z,102107.13
2023-04-30T19:52:15.719Z,102104.31
2023-04-30T19:55:02.174Z,102099.44
2023-04-30T19:57:48.055Z,102085.13
2023-04-30T20:00:34.478Z,102085.88
2023-04-30T20:03:20.707Z,102080.28
2023-04-30T20:06:07.935Z,102083.56
2023-04-30T20:08:55.207Z,102077.00
2023-04-30T20:11:41.147Z,102072.97
2023-04-30T20:14:27.266Z,102070.63
2023-04-30T20:17:14.678Z,102067.78
2023-04-30T20:20:01.135Z,102075.50
2023-04-30T20:22:47.747Z,102070.66
2023-04-30T20:25:34.763Z,102073.91
2023-04-30T20:28:20.765Z,102077.81
2023-04-30T20:31:09.513Z,102077.38
2023-04-30T20:33:56.043Z,102069.72
2023-04-30T20:36:41.838Z,102075.44
2023-04-30T20:39:27.580Z,102068.00
2023-04-30T20:42:14.572Z,102063.09
2023-04-30T20:45:01.949Z,102080.16
2023-04-30T20:47:48.953Z,102075.44
2023-04-30T20:50:34.642Z,102074.25
2023-04-30T20:53:20.558Z,102072.75
2023-04-30T20:56:06.728Z,102071.44
2023-04-30T20:58:54.451Z,102065.72
2023-04-30T21:01:40.679Z,102063.38
2023-04-30T21:04:26.552Z,102063.75
2023-04-30T21:07:12.702Z,102063.31
2023-04-30T21:09:59.084Z,102055.69
2023-04-30T21:12:44.849Z,102054.44
2023-04-30T21:15:35.651Z,102054.75
2023-04-30T21:18:21.434Z,102056.84
2023-04-30T21:21:09.158Z,102055.41
2023-04-30T21:23:54.935Z,102058.44
2023-04-30T21:26:40.712Z,102063.19
2023-04-30T21:29:26.541Z,102058.09
2023-04-30T21:32:13.754Z,102055.63
2023-04-30T21:34:59.627Z,102048.94
2023-04-30T21:37:45.431Z,102045.94
2023-04-30T21:40:31.985Z,102042.91
2023-04-30T21:43:18.559Z,102045.06
2023-04-30T21:46:05.207Z,102036.41
2023-04-30T21:48:52.677Z,102027.72
2023-04-30T21:51:39.113Z,102033.19
2023-04-30T21:54:25.109Z,102023.84
2023-04-30T21:57:11.083Z,102023.19
2023-04-30T21:59:57.243Z,102020.91
2023-04-30T22:02:43.954Z,102022.97
2023-04-30T22:05:31.618Z,102026.56
2023-04-30T22:08:17.616Z,102028.63
2023-04-30T22:11:04.558Z,102021.84
2023-04-30T22:13:50.428Z,102021.34
2023-04-30T22:16:36.407Z,102019.72
2023-04-30T22:19:22.475Z,102019.16
2023-04-30T22:22:09.748Z,102016.91
2023-04-30T22:24:56.435Z,102015.34
2023-04-30T22:27:42.553Z,102018.28
2023-04-30T22:30:28.414Z,102015.81
2023-04-30T22:33:14.639Z,102016.09
2023-04-30T22:36:01.107Z,102014.59
2023-04-30T22:38:48.541Z,102013.00
2023-04-30T22:41:35.086Z,102016.78
2023-04-30T22:44:21.296Z,102006.41
2023-04-30T22:47:07.499Z,102003.97
2023-04-30T22:49:53.727Z,102006.78
2023-04-30T22:52:39.719Z,102004.28
2023-04-30T22:55:27.224Z,102001.06
2023-04-30T22:58:13.276Z,102000.41
2023-04-30T23:00:59.480Z,102007.66
2023-04-30T23:03:45.712Z,102007.97
2023-04-30T23:06:31.568Z,102010.88
2023-04-30T23:09:17.504Z,102008.50
2023-04-30T23:12:05.544Z,102016.50
2023-04-30T23:14:51.819Z,102014.16
2023-04-30T23:17:37.883Z,102012.59
2023-04-30T23:20:23.547Z,102021.53
2023-04-30T23:23:09.206Z,102025.94
2023-04-30T23:25:55.866Z,102021.78
2023-04-30T23:28:43.015Z,102018.38
2023-04-30T23:31:28.801Z,102015.00
2023-04-30T23:34:15.176Z,102013.44
2023-04-30T23:37:01.550Z,102023.22
2023-04-30T23:39:48.006Z,102028.66
2023-04-30T23:42:34.134Z,102036.75
2023-04-30T23:45:22.339Z,102039.47
2023-04-30T23:48:08.590Z,102038.78
2023-04-30T23:51:04.774Z,102039.81
2023-04-30T23:53:50.800Z,102044.38
2023-04-30T23:56:37.290Z,102048.88
2023-04-30T23:59:24.590Z,102044.63
